Time;durP1;ratioP1;P1;durP2;ratioP2;P2;SDS_P1;SDS_P2;PMS_P1;PMS_P2;Temp;Humidity;BMP_temperature;BMP_pressure;BME280_temperature;BME280_humidity;BME280_pressure;Samples;Min_cycle;Max_cycle;Signal;HPM_P1;HPM_P2
2022/05/31 00:00:22;;;;;;;4.60;4.05;;;12.60;99.90;;;;;;5035695;28;20204;-74
2022/05/31 00:02:49;;;;;;;4.93;4.15;;;12.60;99.90;;;;;;5029176;28;20177;-73
2022/05/31 00:05:14;;;;;;;4.82;4.32;;;12.50;99.90;;;;;;5027653;28;20188;-76
2022/05/31 00:07:41;;;;;;;5.68;4.05;;;12.50;99.90;;;;;;5026483;28;20202;-74
2022/05/31 00:10:09;;;;;;;5.15;4.20;;;12.50;99.90;;;;;;5039276;28;20173;-74
2022/05/31 00:12:35;;;;;;;5.25;4.13;;;12.40;99.90;;;;;;5026610;28;20194;-73
2022/05/31 00:15:03;;;;;;;4.63;4.15;;;12.40;99.90;;;;;;5037677;28;20389;-75
2022/05/31 00:17:30;;;;;;;4.90;4.35;;;12.40;99.90;;;;;;5038560;28;20181;-74
2022/05/31 00:19:59;;;;;;;5.18;4.40;;;12.30;99.90;;;;;;5032304;28;20189;-73
2022/05/31 00:22:29;;;;;;;5.65;4.38;;;12.30;99.90;;;;;;5026305;28;20181;-75
2022/05/31 00:24:57;;;;;;;4.72;4.05;;;12.30;99.90;;;;;;5038598;28;20173;-75
2022/05/31 00:27:26;;;;;;;5.15;4.15;;;12.30;99.90;;;;;;5035635;28;20209;-73
2022/05/31 00:29:55;;;;;;;4.85;4.25;;;12.30;99.90;;;;;;5034983;28;20211;-76
2022/05/31 00:32:32;;;;;;;5.35;4.20;;;12.30;99.90;;;;;;5030875;28;20176;-76
2022/05/31 00:35:07;;;;;;;5.18;4.00;;;12.40;99.90;;;;;;5042821;28;20174;-76
2022/05/31 00:37:34;;;;;;;5.93;3.67;;;12.30;99.90;;;;;;5025981;28;20288;-75
2022/05/31 00:39:59;;;;;;;7.03;4.30;;;12.40;99.90;;;;;;5050883;28;20197;-76
2022/05/31 00:42:25;;;;;;;4.88;3.75;;;12.30;99.90;;;;;;5041811;28;20177;-75
2022/05/31 00:44:51;;;;;;;5.20;3.80;;;12.40;99.90;;;;;;5033712;28;20201;-76
2022/05/31 00:47:35;;;;;;;5.05;4.20;;;12.40;99.90;;;;;;5037582;28;20314;-75
2022/05/31 00:50:08;;;;;;;5.95;4.25;;;12.40;99.90;;;;;;5047449;28;20173;-76
2022/05/31 00:52:47;;;;;;;5.35;3.75;;;12.50;99.90;;;;;;5035167;28;20204;-76
2022/05/31 00:55:24;;;;;;;4.35;3.95;;;12.50;99.90;;;;;;5038225;28;20184;-76
2022/05/31 00:58:00;;;;;;;5.35;4.15;;;12.60;99.90;;;;;;5042856;28;20192;-76
2022/05/31 01:00:26;;;;;;;4.55;3.90;;;12.60;99.90;;;;;;5031039;28;20355;-76
2022/05/31 01:02:52;;;;;;;5.40;4.35;;;12.60;99.90;;;;;;5038008;28;20267;-75
2022/05/31 01:05:21;;;;;;;5.22;4.28;;;12.60;99.90;;;;;;5027596;28;20289;-75
2022/05/31 01:07:48;;;;;;;4.90;4.40;;;12.60;99.90;;;;;;5027176;28;20224;-75
2022/05/31 01:10:15;;;;;;;5.00;4.50;;;12.70;99.90;;;;;;5023485;28;20420;-74
2022/05/31 01:12:42;;;;;;;4.47;4.03;;;12.60;99.90;;;;;;5025597;28;20220;-75
2022/05/31 01:15:12;;;;;;;5.38;4.15;;;12.60;99.90;;;;;;5034564;28;20275;-76
2022/05/31 01:17:41;;;;;;;5.57;3.97;;;12.70;99.90;;;;;;5035624;28;20177;-74
2022/05/31 01:20:11;;;;;;;5.32;4.00;;;12.70;99.90;;;;;;5038219;28;20174;-75
2022/05/31 01:22:40;;;;;;;4.75;3.72;;;12.70;99.90;;;;;;5026219;28;20268;-74
2022/05/31 01:25:24;;;;;;;5.10;3.88;;;12.70;99.90;;;;;;5029396;28;20166;-74
2022/05/31 01:28:08;;;;;;;4.22;3.72;;;12.70;99.90;;;;;;5039839;28;20234;-75
2022/05/31 01:30:46;;;;;;;4.28;3.33;;;12.80;99.90;;;;;;5035864;28;20174;-74
2022/05/31 01:33:33;;;;;;;3.22;2.92;;;12.70;99.90;;;;;;5021463;28;20216;-73
2022/05/31 01:36:06;;;;;;;3.60;3.03;;;12.80;99.90;;;;;;5037461;28;20174;-74
2022/05/31 01:38:39;;;;;;;4.25;3.30;;;12.80;99.90;;;;;;5032049;28;20219;-73
2022/05/31 01:41:16;;;;;;;5.63;3.35;;;12.80;99.90;;;;;;5029587;28;20208;-73
2022/05/31 01:43:49;;;;;;;3.75;3.00;;;12.80;99.90;;;;;;5043150;28;20189;-71
2022/05/31 01:46:24;;;;;;;3.50;2.70;;;12.80;99.90;;;;;;5052922;28;20235;-74
2022/05/31 01:48:51;;;;;;;3.45;3.00;;;12.80;99.90;;;;;;5034581;28;20193;-73
2022/05/31 01:51:17;;;;;;;3.42;3.13;;;12.90;99.90;;;;;;5034533;28;20173;-71
2022/05/31 01:53:43;;;;;;;5.70;2.92;;;12.90;99.90;;;;;;5027084;28;20215;-73
2022/05/31 01:56:13;;;;;;;3.40;2.85;;;12.90;99.90;;;;;;5037721;28;20205;-74
2022/05/31 01:58:44;;;;;;;3.10;2.83;;;12.90;99.90;;;;;;5034378;28;20201;-73
2022/05/31 02:01:10;;;;;;;3.65;2.40;;;12.90;99.90;;;;;;5038086;28;20213;-77
2022/05/31 02:03:39;;;;;;;3.28;2.35;;;12.90;99.90;;;;;;5036114;28;20296;-78
2022/05/31 02:06:23;;;;;;;2.78;2.35;;;12.90;99.90;;;;;;5035944;28;20205;-78
2022/05/31 02:08:56;;;;;;;3.08;2.65;;;12.90;99.90;;;;;;5036912;28;20169;-76
2022/05/31 02:11:23;;;;;;;3.15;2.60;;;12.90;99.90;;;;;;5051397;28;20208;-76
2022/05/31 02:13:49;;;;;;;3.13;2.50;;;12.80;99.90;;;;;;5041177;28;20187;-77
2022/05/31 02:16:15;;;;;;;2.72;2.30;;;12.80;99.90;;;;;;5047830;28;20176;-77
2022/05/31 02:21:35;;;;;;;2.60;2.40;;;12.80;99.90;;;;;;5043923;28;20252;-77
2022/05/31 02:24:05;;;;;;;3.72;2.22;;;12.80;99.90;;;;;;5024260;28;20282;-77
2022/05/31 02:26:32;;;;;;;2.45;2.25;;;12.80;99.90;;;;;;5036717;28;20263;-77
2022/05/31 02:28:59;;;;;;;4.90;2.65;;;12.80;99.90;;;;;;5043309;28;20173;-74
2022/05/31 02:31:29;;;;;;;3.33;2.33;;;12.80;99.90;;;;;;5036694;28;20200;-77
2022/05/31 02:33:57;;;;;;;2.55;2.35;;;12.70;99.90;;;;;;5041368;28;20213;-78
2022/05/31 02:36:25;;;;;;;2.55;2.35;;;12.70;99.90;;;;;;5035833;28;20185;-75
2022/05/31 02:38:51;;;;;;;3.45;2.38;;;12.70;99.90;;;;;;5043440;28;20505;-78
2022/05/31 02:41:19;;;;;;;2.47;2.22;;;12.70;99.90;;;;;;5040977;28;20185;-78
2022/05/31 02:43:46;;;;;;;2.70;2.50;;;12.70;99.90;;;;;;5029677;28;20193;-75
2022/05/31 02:46:15;;;;;;;2.45;2.17;;;12.70;99.90;;;;;;5058673;28;20553;-79
2022/05/31 02:48:43;;;;;;;2.88;2.38;;;12.60;99.90;;;;;;5043095;28;20180;-80
2022/05/31 02:51:13;;;;;;;3.65;2.45;;;12.60;99.90;;;;;;5043639;28;20212;-80
2022/05/31 02:53:41;;;;;;;2.55;2.28;;;12.60;99.90;;;;;;5042147;28;20204;-80
2022/05/31 02:56:09;;;;;;;2.92;2.22;;;12.60;99.90;;;;;;5040698;28;20181;-80
2022/05/31 02:58:38;;;;;;;2.70;2.40;;;12.50;99.90;;;;;;5034352;28;20336;-80
2022/05/31 03:01:31;;;;;;;2.60;2.20;;;12.50;99.90;;;;;;5033129;28;20280;-81
2022/05/31 03:04:00;;;;;;;2.88;2.40;;;12.40;99.90;;;;;;5025686;28;20170;-78
2022/05/31 03:06:33;;;;;;;3.15;2.50;;;12.40;99.90;;;;;;5036546;28;20211;-78
2022/05/31 03:09:01;;;;;;;2.40;2.20;;;12.30;99.90;;;;;;5034656;28;20177;-78
2022/05/31 03:11:41;;;;;;;2.83;2.22;;;12.30;99.90;;;;;;5033453;28;20174;-78
2022/05/31 03:14:22;;;;;;;3.45;2.38;;;12.30;99.90;;;;;;5044055;28;20192;-78
2022/05/31 03:16:55;;;;;;;2.42;2.10;;;12.20;99.90;;;;;;5039278;28;20450;-78
2022/05/31 03:19:27;;;;;;;2.80;2.20;;;12.20;99.90;;;;;;5033330;28;20197;-77
2022/05/31 03:22:03;;;;;;;3.28;2.30;;;12.10;99.90;;;;;;5037151;28;20207;-76
2022/05/31 03:24:37;;;;;;;3.50;2.28;;;12.00;99.90;;;;;;5056977;28;20165;-76
2022/05/31 03:27:07;;;;;;;5.55;4.68;;;12.00;99.90;;;;;;5038292;28;20227;-77
2022/05/31 03:29:38;;;;;;;4.65;3.80;;;11.90;99.90;;;;;;5025951;28;20170;-78
2022/05/31 03:32:05;;;;;;;5.65;3.80;;;11.90;99.90;;;;;;5033699;28;20197;-79
2022/05/31 03:34:36;;;;;;;4.30;3.20;;;11.90;99.90;;;;;;5036545;28;20196;-79
2022/05/31 03:37:05;;;;;;;3.83;3.20;;;11.90;99.90;;;;;;5038436;28;20193;-77
2022/05/31 03:39:33;;;;;;;3.78;3.38;;;11.90;99.90;;;;;;5043672;28;20338;-79
2022/05/31 03:41:58;;;;;;;3.33;2.97;;;11.90;99.90;;;;;;5031724;28;20505;-76
2022/05/31 03:44:24;;;;;;;5.70;3.05;;;11.80;99.90;;;;;;5026223;28;20174;-79
2022/05/31 03:46:54;;;;;;;5.00;2.50;;;11.90;99.90;;;;;;5039176;28;20239;-78
2022/05/31 03:49:20;;;;;;;2.97;2.60;;;11.80;99.90;;;;;;5041682;28;20261;-78
2022/05/31 03:51:51;;;;;;;2.80;2.47;;;11.80;99.90;;;;;;5027157;28;20174;-79
2022/05/31 03:54:19;;;;;;;3.33;2.45;;;11.80;99.90;;;;;;5036218;28;20212;-78
2022/05/31 03:56:44;;;;;;;4.25;2.50;;;11.90;99.90;;;;;;5041501;28;20185;-79
2022/05/31 03:59:10;;;;;;;3.08;2.25;;;11.90;99.90;;;;;;5023450;28;20220;-78
2022/05/31 04:01:38;;;;;;;9.57;7.03;;;11.80;99.90;;;;;;5027637;28;20249;-79
2022/05/31 04:04:08;;;;;;;4.47;4.05;;;11.90;99.90;;;;;;5045113;28;20208;-79
2022/05/31 04:06:36;;;;;;;5.28;3.63;;;11.90;99.90;;;;;;5043309;28;20201;-78
2022/05/31 04:09:05;;;;;;;3.88;3.20;;;11.90;99.90;;;;;;5028379;28;20242;-79
2022/05/31 04:11:35;;;;;;;3.33;2.97;;;11.90;99.90;;;;;;5032164;28;20174;-78
2022/05/31 04:14:01;;;;;;;3.95;2.60;;;11.90;99.90;;;;;;5035009;28;20219;-78
2022/05/31 04:16:29;;;;;;;3.10;2.20;;;11.90;99.90;;;;;;5027254;28;20238;-78
2022/05/31 04:18:54;;;;;;;3.33;2.40;;;11.90;99.90;;;;;;5029370;28;20268;-79
2022/05/31 04:21:20;;;;;;;2.58;1.92;;;11.90;99.90;;;;;;5038967;28;20335;-78
2022/05/31 04:23:58;;;;;;;2.50;2.20;;;12.00;99.90;;;;;;5035823;28;20189;-75
2022/05/31 04:26:38;;;;;;;1.70;1.60;;;12.00;99.90;;;;;;5036495;28;20204;-78
2022/05/31 04:29:06;;;;;;;2.58;1.90;;;12.10;99.90;;;;;;5050785;28;20190;-78
2022/05/31 04:31:32;;;;;;;5.47;1.95;;;12.10;99.90;;;;;;5049274;28;20177;-77
2022/05/31 04:33:58;;;;;;;5.60;3.75;;;12.20;99.90;;;;;;5023923;28;20197;-78
2022/05/31 04:36:24;;;;;;;4.78;3.58;;;12.20;99.90;;;;;;5032711;28;20208;-78
2022/05/31 04:38:51;;;;;;;3.90;2.97;;;12.30;99.90;;;;;;5037116;28;20271;-79
2022/05/31 04:41:22;;;;;;;4.50;3.05;;;12.30;99.90;;;;;;5034141;28;20188;-79
2022/05/31 04:43:48;;;;;;;3.30;2.53;;;12.30;99.90;;;;;;5025923;28;20177;-79
2022/05/31 04:46:16;;;;;;;3.92;2.13;;;12.40;99.90;;;;;;5033745;28;20204;-79
2022/05/31 04:48:42;;;;;;;2.35;1.90;;;12.40;99.90;;;;;;5037172;28;20177;-77
2022/05/31 04:51:14;;;;;;;2.47;2.03;;;12.50;99.90;;;;;;5033195;28;20259;-78
2022/05/31 04:53:43;;;;;;;4.28;3.17;;;12.50;99.90;;;;;;5029722;28;20209;-78
2022/05/31 04:56:12;;;;;;;3.17;2.60;;;12.50;99.90;;;;;;5036456;28;20185;-77
2022/05/31 04:58:38;;;;;;;2.78;2.25;;;12.50;99.90;;;;;;5041354;28;20180;-79
2022/05/31 05:01:06;;;;;;;2.88;2.30;;;12.50;99.90;;;;;;5034404;28;20227;-78
2022/05/31 05:03:34;;;;;;;2.25;1.98;;;12.50;99.90;;;;;;5048279;28;20205;-79
2022/05/31 05:06:09;;;;;;;3.45;2.00;;;12.60;99.90;;;;;;5021915;28;20186;-81
2022/05/31 05:08:38;;;;;;;3.92;2.30;;;12.60;99.90;;;;;;5024260;28;20185;-82
2022/05/31 05:11:09;;;;;;;2.97;1.88;;;12.60;99.90;;;;;;5032732;28;20216;-81
2022/05/31 05:13:35;;;;;;;2.38;2.08;;;12.60;99.90;;;;;;5037891;28;20256;-82
2022/05/31 05:16:01;;;;;;;3.53;2.03;;;12.60;99.90;;;;;;5031881;28;20184;-82
2022/05/31 05:18:30;;;;;;;3.13;2.22;;;12.50;99.90;;;;;;5046077;28;20185;-85
2022/05/31 05:20:58;;;;;;;2.63;2.28;;;12.60;99.90;;;;;;5034779;28;20180;-83
2022/05/31 05:23:24;;;;;;;2.30;2.10;;;12.50;99.90;;;;;;5031670;28;20205;-82
2022/05/31 05:25:51;;;;;;;3.17;1.85;;;12.50;99.90;;;;;;5037675;28;20182;-81
2022/05/31 05:31:02;;;;;;;3.28;1.85;;;12.50;99.90;;;;;;5055163;28;20272;-79
2022/05/31 05:33:29;;;;;;;3.58;2.08;;;12.60;99.90;;;;;;5035107;28;20272;-81
2022/05/31 05:35:55;;;;;;;3.25;2.47;;;12.60;99.90;;;;;;5038813;28;20452;-81
2022/05/31 05:38:21;;;;;;;2.72;2.28;;;12.60;99.90;;;;;;5038111;28;20169;-82
2022/05/31 05:40:46;;;;;;;3.30;2.47;;;12.60;99.90;;;;;;5054716;28;20185;-82
2022/05/31 05:43:13;;;;;;;3.08;2.20;;;12.60;99.90;;;;;;5033404;28;20193;-79
2022/05/31 05:45:41;;;;;;;3.13;2.50;;;12.70;99.90;;;;;;5033764;28;20471;-82
2022/05/31 05:48:06;;;;;;;3.55;2.58;;;12.80;99.90;;;;;;5033651;28;20224;-81
2022/05/31 05:50:40;;;;;;;3.38;2.50;;;12.80;99.90;;;;;;5036549;28;20228;-79
2022/05/31 05:53:10;;;;;;;3.72;2.47;;;12.80;99.90;;;;;;5024848;28;20355;-78
2022/05/31 05:55:37;;;;;;;3.10;2.50;;;12.80;99.90;;;;;;5032916;28;20184;-82
2022/05/31 05:58:07;;;;;;;4.50;2.53;;;12.90;99.90;;;;;;5032889;28;20246;-83
2022/05/31 06:00:48;;;;;;;3.72;2.42;;;13.00;99.90;;;;;;5024450;28;20189;-84
2022/05/31 06:03:41;;;;;;;3.28;2.55;;;13.00;99.90;;;;;;5020911;28;20185;-84
2022/05/31 06:06:09;;;;;;;3.33;2.08;;;13.20;99.90;;;;;;5033563;28;20181;-85
2022/05/31 06:08:50;;;;;;;2.30;2.10;;;13.30;99.90;;;;;;5036665;28;20166;-82
2022/05/31 06:11:27;;;;;;;2.80;2.20;;;13.40;99.90;;;;;;5036723;28;20194;-79
2022/05/31 06:14:12;;;;;;;3.70;2.20;;;13.50;99.90;;;;;;5023898;28;20270;-82
2022/05/31 06:16:46;;;;;;;3.70;2.72;;;13.60;99.90;;;;;;5036813;28;20204;-81
2022/05/31 06:19:17;;;;;;;3.05;2.28;;;13.70;99.90;;;;;;5036843;28;20192;-82
2022/05/31 06:21:48;;;;;;;2.45;1.88;;;13.80;99.90;;;;;;5054181;28;20189;-81
2022/05/31 06:24:17;;;;;;;2.90;2.33;;;13.90;99.90;;;;;;5034266;28;20182;-84
2022/05/31 06:26:45;;;;;;;3.97;2.20;;;13.90;99.90;;;;;;5040956;28;20300;-70
2022/05/31 06:29:11;;;;;;;4.97;2.17;;;14.00;99.90;;;;;;5036792;28;20217;-80
2022/05/31 06:31:37;;;;;;;3.08;1.88;;;14.00;99.90;;;;;;5049470;28;20188;-78
2022/05/31 06:34:05;;;;;;;2.92;1.90;;;14.00;99.90;;;;;;5028175;28;20186;-80
2022/05/31 06:36:31;;;;;;;2.65;2.05;;;14.10;99.90;;;;;;5042254;28;20173;-79
2022/05/31 06:38:56;;;;;;;3.72;2.30;;;14.20;99.90;;;;;;5036581;28;20173;-81
2022/05/31 06:41:24;;;;;;;2.80;2.10;;;14.20;99.90;;;;;;5037855;28;20271;-81
2022/05/31 06:43:50;;;;;;;4.05;2.85;;;14.20;99.90;;;;;;5032640;28;20186;-82
2022/05/31 06:46:16;;;;;;;3.30;2.28;;;14.30;99.90;;;;;;5033784;28;20198;-82
2022/05/31 06:48:42;;;;;;;4.43;2.25;;;14.40;99.90;;;;;;5020290;28;20169;-81
2022/05/31 06:56:48;;;;;;;3.70;2.30;;;14.40;99.90;;;;;;5037167;28;20196;-82
2022/05/31 06:56:57;;;;;;;3.80;2.53;;;14.50;99.90;;;;;;5049244;28;20184;-83
2022/05/31 06:59:22;;;;;;;2.53;2.33;;;14.50;99.90;;;;;;5021141;28;20186;-84
2022/05/31 07:01:51;;;;;;;4.32;2.28;;;14.60;99.90;;;;;;5056096;28;20197;-83
2022/05/31 07:04:17;;;;;;;2.85;2.42;;;14.60;99.90;;;;;;5028587;28;20185;-82
2022/05/31 07:06:42;;;;;;;3.53;2.20;;;14.70;99.90;;;;;;5020710;28;20277;-79
2022/05/31 07:09:08;;;;;;;5.68;2.20;;;14.70;99.90;;;;;;5022809;28;20197;-81
2022/05/31 07:11:34;;;;;;;3.25;2.33;;;14.80;99.90;;;;;;5040848;28;20172;-81
2022/05/31 07:14:01;;;;;;;5.15;2.50;;;14.70;99.90;;;;;;5039790;28;20288;-82
2022/05/31 07:16:29;;;;;;;4.25;2.50;;;14.70;99.90;;;;;;5057038;28;20184;-83
2022/05/31 07:18:57;;;;;;;2.83;2.10;;;14.80;99.90;;;;;;5055899;28;20184;-82
2022/05/31 07:21:28;;;;;;;4.10;2.58;;;14.70;99.90;;;;;;5039266;28;20296;-80
2022/05/31 07:23:54;;;;;;;3.80;2.08;;;14.80;99.90;;;;;;5031580;28;20460;-83
2022/05/31 07:26:22;;;;;;;2.28;1.75;;;14.80;99.90;;;;;;5054725;28;20205;-79
2022/05/31 07:28:47;;;;;;;4.22;2.08;;;14.80;99.90;;;;;;5040102;28;20201;-82
2022/05/31 07:31:15;;;;;;;4.03;2.47;;;14.80;99.90;;;;;;5037794;28;20212;-81
2022/05/31 07:33:41;;;;;;;3.33;2.03;;;14.80;99.90;;;;;;5022044;28;20236;-82
2022/05/31 07:36:07;;;;;;;2.88;2.03;;;14.80;99.90;;;;;;5033404;28;20186;-82
2022/05/31 07:38:36;;;;;;;3.03;2.13;;;14.80;99.90;;;;;;5023651;28;20181;-83
2022/05/31 07:41:06;;;;;;;3.58;2.20;;;14.90;99.90;;;;;;5027396;28;20465;-82
2022/05/31 07:43:32;;;;;;;2.42;1.88;;;14.90;99.90;;;;;;5033134;28;20257;-82
2022/05/31 07:46:07;;;;;;;2.97;2.17;;;14.90;99.90;;;;;;5048108;28;20273;-81
2022/05/31 07:48:39;;;;;;;4.10;2.40;;;14.90;99.90;;;;;;5039584;28;20193;-80
2022/05/31 07:51:06;;;;;;;2.60;1.95;;;14.90;99.90;;;;;;5036478;28;20178;-82
2022/05/31 07:53:35;;;;;;;2.80;1.88;;;14.90;99.90;;;;;;5024708;28;20220;-83
2022/05/31 07:56:11;;;;;;;2.58;1.98;;;14.90;99.90;;;;;;5055366;28;20201;-81
2022/05/31 07:58:42;;;;;;;2.97;1.90;;;14.90;99.90;;;;;;5037252;28;20259;-82
2022/05/31 08:01:11;;;;;;;2.80;2.00;;;14.90;99.90;;;;;;5039262;28;20216;-79
2022/05/31 08:03:38;;;;;;;3.38;1.98;;;14.90;99.90;;;;;;5033489;28;20269;-80
2022/05/31 08:06:16;;;;;;;2.28;1.88;;;15.00;99.90;;;;;;5038962;28;20174;-79
2022/05/31 08:08:42;;;;;;;2.97;2.05;;;15.10;99.90;;;;;;5038304;28;20189;-82
2022/05/31 08:11:13;;;;;;;2.78;2.00;;;15.00;99.90;;;;;;5039705;28;20184;-81
2022/05/31 08:13:39;;;;;;;4.15;2.20;;;15.10;99.90;;;;;;5045109;28;20264;-82
2022/05/31 08:16:07;;;;;;;4.03;2.42;;;15.10;99.90;;;;;;5053935;28;20272;-80
2022/05/31 08:18:34;;;;;;;3.72;2.45;;;15.20;99.90;;;;;;5035416;28;20177;-82
2022/05/31 08:21:08;;;;;;;2.30;2.10;;;15.20;99.90;;;;;;5019887;28;20258;-81
2022/05/31 08:23:40;;;;;;;3.08;1.88;;;15.20;99.90;;;;;;5038989;28;20262;-80
2022/05/31 08:26:12;;;;;;;2.80;2.13;;;15.20;99.90;;;;;;5039164;28;20176;-81
2022/05/31 08:28:38;;;;;;;4.13;2.10;;;15.20;99.90;;;;;;5020131;28;20268;-80
2022/05/31 08:31:13;;;;;;;2.22;1.90;;;15.20;99.90;;;;;;5019462;28;20200;-77
2022/05/31 08:33:41;;;;;;;2.40;1.70;;;15.20;99.90;;;;;;5039135;28;20255;-80
2022/05/31 08:36:09;;;;;;;2.55;1.92;;;15.20;99.90;;;;;;5037856;28;20224;-82
2022/05/31 08:38:35;;;;;;;3.70;1.83;;;15.20;99.90;;;;;;5038300;28;20235;-78
2022/05/31 08:41:18;;;;;;;3.95;2.08;;;15.20;99.90;;;;;;5055083;28;20169;-81
2022/05/31 08:43:47;;;;;;;2.13;1.90;;;15.20;99.90;;;;;;5054858;28;20173;-81
2022/05/31 08:46:35;;;;;;;2.65;1.85;;;15.20;99.90;;;;;;5055525;28;20169;-81
2022/05/31 08:49:15;;;;;;;3.05;1.80;;;15.30;99.90;;;;;;5011473;28;20236;-82
2022/05/31 08:52:04;;;;;;;6.85;2.55;;;15.40;99.90;;;;;;5025053;28;20232;-79
2022/05/31 08:57:53;;;;;;;1.80;1.55;;;15.50;99.90;;;;;;5051848;28;20231;-80
2022/05/31 09:00:33;;;;;;;2.22;1.60;;;15.60;99.90;;;;;;5038343;28;20429;-81
2022/05/31 09:03:30;;;;;;;3.22;1.90;;;15.70;99.90;;;;;;5030258;28;20224;-80
2022/05/31 09:06:05;;;;;;;7.10;2.10;;;15.80;99.90;;;;;;5036359;28;20245;-81
2022/05/31 09:08:38;;;;;;;4.00;1.50;;;15.90;99.90;;;;;;5037356;28;20189;-81
2022/05/31 09:11:25;;;;;;;4.03;2.25;;;16.00;99.90;;;;;;5019955;28;20181;-79
2022/05/31 09:13:58;;;;;;;3.90;1.90;;;16.10;99.90;;;;;;5028688;28;20169;-82
2022/05/31 09:16:35;;;;;;;4.45;1.88;;;16.10;99.90;;;;;;5045675;28;20262;-82
2022/05/31 09:19:05;;;;;;;2.75;1.90;;;16.20;99.90;;;;;;5033239;28;20185;-82
2022/05/31 09:21:45;;;;;;;3.30;1.80;;;16.20;99.90;;;;;;5036611;28;20181;-80
2022/05/31 09:24:19;;;;;;;3.90;1.80;;;16.20;99.90;;;;;;5036945;28;20177;-82
2022/05/31 09:27:06;;;;;;;3.50;1.90;;;16.20;99.90;;;;;;5035966;28;20189;-82
2022/05/31 09:30:05;;;;;;;2.10;1.50;;;16.30;99.90;;;;;;5025548;28;20280;-82
2022/05/31 09:32:58;;;;;;;3.30;1.80;;;16.30;99.90;;;;;;5044718;28;20205;-81
2022/05/31 09:36:03;;;;;;;3.38;1.77;;;16.30;99.90;;;;;;5033992;28;20429;-81
2022/05/31 09:39:03;;;;;;;3.05;1.73;;;16.40;99.90;;;;;;5031429;28;20254;-79
2022/05/31 09:41:49;;;;;;;3.50;2.03;;;16.50;99.90;;;;;;5034594;28;20260;-81
2022/05/31 09:44:27;;;;;;;3.70;1.83;;;16.60;99.90;;;;;;5032692;28;20475;-78
2022/05/31 09:47:24;;;;;;;3.25;1.80;;;16.70;99.90;;;;;;5018069;28;20201;-79
2022/05/31 09:49:54;;;;;;;2.55;1.63;;;16.90;99.90;;;;;;5035380;28;20212;-79
2022/05/31 09:52:34;;;;;;;2.35;1.77;;;17.00;99.90;;;;;;5035993;28;20173;-81
2022/05/31 09:58:08;;;;;;;2.42;1.40;;;17.20;99.90;;;;;;5041566;28;20204;-80
2022/05/31 10:00:57;;;;;;;2.63;1.50;;;17.40;99.90;;;;;;5035436;28;20189;-81
2022/05/31 10:03:39;;;;;;;2.38;1.60;;;17.60;99.90;;;;;;5038503;28;20200;-81
2022/05/31 10:06:13;;;;;;;3.85;1.70;;;17.70;99.90;;;;;;5032787;28;20193;-76
2022/05/31 10:08:51;;;;;;;2.70;1.92;;;17.90;99.90;;;;;;5037037;28;20199;-75
2022/05/31 10:11:37;;;;;;;1.90;1.70;;;18.00;99.90;;;;;;5034232;28;20253;-76
2022/05/31 10:14:08;;;;;;;5.80;2.22;;;18.20;99.90;;;;;;5033344;28;20207;-75
2022/05/31 10:16:38;;;;;;;2.80;1.70;;;18.30;99.90;;;;;;5037065;28;20224;-77
2022/05/31 10:19:22;;;;;;;2.35;1.77;;;18.40;99.90;;;;;;5019662;28;20263;-76
2022/05/31 10:21:50;;;;;;;2.00;1.58;;;18.50;99.90;;;;;;5020724;28;20213;-76
2022/05/31 10:24:21;;;;;;;2.92;1.60;;;18.60;99.90;;;;;;5017487;28;20202;-75
2022/05/31 10:27:18;;;;;;;2.22;1.55;;;18.70;99.90;;;;;;5024386;28;20201;-76
2022/05/31 10:30:00;;;;;;;2.00;1.63;;;18.80;99.90;;;;;;5038903;28;20196;-78
2022/05/31 10:32:48;;;;;;;2.80;1.70;;;18.90;99.90;;;;;;5022824;28;20174;-77
2022/05/31 10:35:16;;;;;;;2.72;1.65;;;19.00;99.90;;;;;;5041316;28;20205;-77
2022/05/31 10:37:57;;;;;;;2.67;1.73;;;19.10;99.90;;;;;;5021240;28;20260;-77
2022/05/31 10:40:31;;;;;;;2.50;1.60;;;19.10;99.90;;;;;;5029941;28;20404;-76
2022/05/31 10:43:06;;;;;;;3.45;1.80;;;19.10;99.90;;;;;;5040741;28;20443;-77
2022/05/31 10:45:34;;;;;;;2.67;1.50;;;19.10;99.90;;;;;;5042806;28;20189;-77
2022/05/31 10:48:08;;;;;;;4.38;1.83;;;19.10;99.90;;;;;;5021815;28;20235;-77
2022/05/31 10:51:02;;;;;;;3.08;1.60;;;19.10;99.90;;;;;;5024340;28;20222;-77
2022/05/31 10:53:48;;;;;;;2.75;1.60;;;19.10;99.90;;;;;;5032463;28;20178;-77
2022/05/31 10:56:20;;;;;;;2.42;1.50;;;19.10;99.90;;;;;;5040821;28;20261;-76
2022/05/31 10:58:54;;;;;;;2.78;1.75;;;19.20;99.90;;;;;;5040219;28;20230;-77
2022/05/31 11:01:19;;;;;;;3.42;1.60;;;19.20;99.90;;;;;;5039644;28;20190;-78
2022/05/31 11:04:39;;;;;;;2.20;1.42;;;19.30;99.90;;;;;;5040623;28;20185;-76
2022/05/31 11:07:36;;;;;;;2.10;1.52;;;19.40;99.90;;;;;;4940996;29;20204;-76
2022/05/31 11:13:03;;;;;;;2.03;1.38;;;19.70;99.90;;;;;;5057596;28;20231;-77
2022/05/31 11:15:54;;;;;;;2.47;1.45;;;19.70;99.90;;;;;;5037053;28;20227;-77
2022/05/31 11:18:37;;;;;;;1.92;1.50;;;19.80;99.90;;;;;;5040186;28;20192;-78
2022/05/31 11:21:12;;;;;;;2.45;1.67;;;19.80;99.90;;;;;;5040834;28;20158;-77
2022/05/31 11:24:36;;;;;;;2.30;1.25;;;19.80;99.90;;;;;;5038639;28;20210;-76
2022/05/31 11:27:22;;;;;;;2.00;1.30;;;19.80;99.90;;;;;;4953671;29;20197;-78
2022/05/31 11:30:16;;;;;;;1.60;1.25;;;19.90;99.90;;;;;;5022321;28;20173;-79
2022/05/31 11:32:55;;;;;;;2.17;1.30;;;20.00;99.90;;;;;;5038724;28;20169;-78
2022/05/31 11:35:42;;;;;;;1.92;1.40;;;20.10;99.90;;;;;;5031145;28;20181;-79
2022/05/31 11:38:18;;;;;;;2.20;1.40;;;20.10;99.90;;;;;;5020411;28;20210;-77
2022/05/31 11:40:46;;;;;;;2.28;1.50;;;20.20;99.90;;;;;;5039115;28;20185;-75
2022/05/31 11:43:27;;;;;;;2.42;1.40;;;20.20;99.90;;;;;;5039399;28;20277;-76
2022/05/31 11:46:07;;;;;;;1.73;1.40;;;20.20;99.90;;;;;;5056645;28;20268;-76
2022/05/31 11:48:53;;;;;;;2.28;1.20;;;20.30;99.90;;;;;;5039622;28;20185;-73
2022/05/31 11:51:40;;;;;;;1.83;1.30;;;20.30;99.90;;;;;;5044500;28;20177;-78
2022/05/31 11:54:18;;;;;;;2.15;1.52;;;20.40;99.90;;;;;;5039299;28;20256;-78
2022/05/31 11:56:55;;;;;;;2.10;1.40;;;20.60;99.90;;;;;;5036185;28;20209;-78
2022/05/31 11:59:29;;;;;;;2.95;1.35;;;20.70;99.90;;;;;;5026929;28;20181;-79
2022/05/31 12:02:02;;;;;;;2.38;1.35;;;20.90;99.90;;;;;;5042166;28;20188;-75
2022/05/31 12:04:44;;;;;;;1.70;1.50;;;21.10;99.90;;;;;;5052571;28;20421;-75
2022/05/31 12:07:18;;;;;;;1.95;1.33;;;21.30;99.90;;;;;;5028610;28;20267;-74
2022/05/31 12:09:49;;;;;;;1.88;1.35;;;21.50;99.90;;;;;;5034490;28;20174;-75
2022/05/31 12:12:30;;;;;;;1.40;1.17;;;21.60;99.90;;;;;;5033361;28;20182;-77
2022/05/31 12:15:15;;;;;;;1.77;1.30;;;21.80;99.90;;;;;;5038987;28;20201;-76
2022/05/31 12:18:01;;;;;;;1.77;1.10;;;21.90;99.90;;;;;;5035901;28;20182;-77
2022/05/31 12:20:59;;;;;;;3.20;1.20;;;22.00;99.90;;;;;;5025684;28;20176;-79
2022/05/31 12:23:32;;;;;;;2.25;1.00;;;22.10;99.90;;;;;;5019596;28;20174;-77
2022/05/31 12:26:00;;;;;;;1.40;0.93;;;22.20;99.90;;;;;;5033265;28;20211;-79
2022/05/31 12:28:31;;;;;;;1.15;1.05;;;22.30;99.90;;;;;;5038979;28;20200;-79
2022/05/31 12:31:17;;;;;;;1.92;1.15;;;22.30;99.90;;;;;;5038638;28;20186;-78
2022/05/31 12:33:47;;;;;;;1.65;1.20;;;22.50;99.90;;;;;;5035587;28;20204;-79
2022/05/31 12:36:21;;;;;;;1.77;1.25;;;22.60;99.90;;;;;;5036375;28;20187;-79
2022/05/31 12:39:08;;;;;;;2.92;1.30;;;22.80;99.90;;;;;;5038514;28;20176;-79
2022/05/31 12:41:47;;;;;;;2.10;1.17;;;23.00;99.90;;;;;;5035850;28;20174;-81
2022/05/31 12:44:34;;;;;;;2.03;1.10;;;23.10;99.90;;;;;;5019782;28;20185;-78
2022/05/31 12:47:17;;;;;;;3.00;1.40;;;23.20;99.90;;;;;;5035474;28;20206;-80
2022/05/31 12:49:48;;;;;;;1.63;1.20;;;23.30;99.90;;;;;;5051697;28;20169;-79
2022/05/31 12:55:12;;;;;;;1.90;1.38;;;23.40;99.90;;;;;;5036499;28;20174;-78
2022/05/31 13:00:37;;;;;;;1.50;1.20;;;23.40;99.90;;;;;;5055816;28;20219;-78
2022/05/31 13:03:34;;;;;;;3.00;1.33;;;23.50;99.90;;;;;;5038504;28;20237;-78
2022/05/31 13:06:16;;;;;;;2.35;1.55;;;23.60;99.90;;;;;;5037920;28;20197;-79
2022/05/31 13:09:00;;;;;;;1.45;1.10;;;23.80;99.90;;;;;;5038381;28;20212;-80
2022/05/31 13:20:39;;;;;;;1.13;1.02;;;24.10;99.90;;;;;;5036930;28;20192;-79
2022/05/31 13:23:17;;;;;;;1.45;1.17;;;24.00;99.90;;;;;;5035777;28;20178;-77
2022/05/31 13:25:56;;;;;;;1.30;1.02;;;23.70;99.90;;;;;;5018610;28;20209;-82
2022/05/31 13:28:33;;;;;;;2.47;1.20;;;23.50;99.90;;;;;;5027833;28;20228;-77
2022/05/31 13:31:23;;;;;;;1.63;1.13;;;23.40;99.90;;;;;;5037846;28;20197;-80
2022/05/31 13:34:06;;;;;;;1.40;1.10;;;23.40;99.90;;;;;;5026566;28;20490;-79
2022/05/31 13:36:43;;;;;;;1.25;1.05;;;23.50;99.90;;;;;;5037822;28;20178;-78
2022/05/31 13:39:13;;;;;;;1.10;1.00;;;23.60;99.90;;;;;;5032244;28;20169;-81
2022/05/31 13:41:56;;;;;;;1.95;1.30;;;23.60;99.90;;;;;;5030769;28;20184;-82
2022/05/31 13:44:35;;;;;;;1.60;1.00;;;23.60;99.90;;;;;;5029564;28;20267;-82
2022/05/31 13:47:05;;;;;;;1.30;1.08;;;23.60;99.90;;;;;;5036925;28;20192;-80
2022/05/31 13:49:42;;;;;;;1.10;1.00;;;23.60;99.90;;;;;;5054332;28;20284;-80
2022/05/31 13:52:27;;;;;;;1.13;1.02;;;23.60;98.60;;;;;;5037241;28;20427;-78